Time;durP1;ratioP1;P1;durP2;ratioP2;P2;SDS_P1;SDS_P2;PMS_P1;PMS_P2;Temp;Humidity;BMP_temperature;BMP_pressure;BME280_temperature;BME280_humidity;BME280_pressure;Samples;Min_cycle;Max_cycle;Signal;HPM_P1;HPM_P2
2023/01/25 00:01:20;;;;;;;4.63;4.23;;;22.10;51.60;;;;;;4932220;29;20500;-66
2023/01/25 00:03:48;;;;;;;3.50;3.20;;;22.10;51.60;;;;;;4927025;29;20463;-65
2023/01/25 00:06:17;;;;;;;3.80;3.50;;;22.10;51.60;;;;;;4926236;29;20563;-64
2023/01/25 00:08:49;;;;;;;4.43;3.90;;;22.10;51.60;;;;;;4937240;29;20554;-64
2023/01/25 00:11:18;;;;;;;3.50;3.27;;;22.10;51.60;;;;;;4933397;29;20469;-64
2023/01/25 00:13:46;;;;;;;3.60;3.30;;;22.20;51.50;;;;;;4936259;29;20491;-64
2023/01/25 00:16:15;;;;;;;5.63;5.23;;;22.20;51.50;;;;;;4937078;29;20429;-64
2023/01/25 00:18:43;;;;;;;3.90;3.60;;;22.20;51.50;;;;;;4926015;29;20552;-64
2023/01/25 00:21:17;;;;;;;4.27;3.97;;;22.20;51.50;;;;;;4931078;29;20475;-64
2023/01/25 00:23:45;;;;;;;4.30;3.90;;;22.20;51.50;;;;;;4921793;29;20460;-65
2023/01/25 00:26:14;;;;;;;4.27;3.90;;;22.20;51.50;;;;;;4923171;29;20456;-65
2023/01/25 00:28:42;;;;;;;3.67;3.27;;;22.20;51.50;;;;;;4919416;29;20507;-64
2023/01/25 00:31:17;;;;;;;4.67;3.87;;;22.20;51.40;;;;;;4920080;29;20461;-64
2023/01/25 00:33:51;;;;;;;3.97;3.67;;;22.10;51.50;;;;;;4929772;29;20467;-64
2023/01/25 00:36:39;;;;;;;5.20;3.77;;;22.10;51.50;;;;;;4933340;29;20530;-65
2023/01/25 00:39:11;;;;;;;4.50;4.20;;;22.10;51.50;;;;;;4928906;29;20463;-64
2023/01/25 00:41:40;;;;;;;3.97;3.67;;;22.10;51.50;;;;;;4929135;29;20507;-64
2023/01/25 00:44:08;;;;;;;4.33;4.03;;;22.10;51.50;;;;;;4933132;29;20456;-65
2023/01/25 00:46:36;;;;;;;4.13;3.83;;;22.10;51.60;;;;;;4921092;29;20784;-64
2023/01/25 00:49:06;;;;;;;3.83;3.53;;;22.10;51.60;;;;;;4928484;29;20475;-64
2023/01/25 00:51:35;;;;;;;3.90;3.60;;;22.10;51.60;;;;;;4927250;29;20520;-65
2023/01/25 00:54:04;;;;;;;4.03;3.73;;;22.10;51.60;;;;;;4931058;29;20889;-65
2023/01/25 00:56:32;;;;;;;4.63;4.10;;;22.10;51.60;;;;;;4922867;29;20497;-64
2023/01/25 00:59:00;;;;;;;3.93;3.70;;;22.10;51.60;;;;;;4933877;29;20970;-65
2023/01/25 01:01:28;;;;;;;5.27;4.87;;;22.10;51.60;;;;;;4926916;29;20481;-64
2023/01/25 01:03:56;;;;;;;3.87;3.57;;;22.10;51.60;;;;;;4931106;29;20513;-64
2023/01/25 01:06:24;;;;;;;4.77;4.37;;;22.10;51.60;;;;;;4916839;29;20641;-64
2023/01/25 01:08:54;;;;;;;4.53;4.23;;;22.10;51.60;;;;;;4919072;29;20463;-65
2023/01/25 01:11:22;;;;;;;3.50;3.27;;;22.10;51.60;;;;;;4924868;29;20465;-64
2023/01/25 01:13:51;;;;;;;3.60;3.30;;;22.10;51.60;;;;;;4922820;29;20461;-64
2023/01/25 01:16:19;;;;;;;3.90;3.67;;;22.10;51.60;;;;;;4927918;29;20942;-65
2023/01/25 01:18:47;;;;;;;4.00;3.70;;;22.10;51.60;;;;;;4935879;29;20433;-64
2023/01/25 01:21:15;;;;;;;4.00;3.60;;;22.20;51.60;;;;;;4935577;29;20478;-64
2023/01/25 01:23:43;;;;;;;3.93;3.63;;;22.20;51.60;;;;;;4933972;29;20883;-64
2023/01/25 01:26:15;;;;;;;4.77;4.37;;;22.20;51.60;;;;;;4921018;29;20452;-65
2023/01/25 01:28:43;;;;;;;4.97;3.83;;;22.20;51.50;;;;;;4922615;29;20503;-65
2023/01/25 01:31:14;;;;;;;5.07;4.23;;;22.20;51.50;;;;;;4932418;29;20536;-64
2023/01/25 01:33:50;;;;;;;5.20;3.77;;;22.20;51.60;;;;;;4931632;29;20952;-65
2023/01/25 01:36:20;;;;;;;4.03;3.73;;;22.20;51.50;;;;;;4930954;29;20492;-65
2023/01/25 01:38:49;;;;;;;3.80;3.50;;;22.20;51.50;;;;;;4920603;29;20497;-65
2023/01/25 01:41:19;;;;;;;3.37;3.17;;;22.20;51.50;;;;;;4927817;29;20503;-66
2023/01/25 01:43:48;;;;;;;4.33;4.03;;;22.20;51.50;;;;;;4943977;29;20552;-64
2023/01/25 01:46:27;;;;;;;4.30;4.00;;;22.20;51.50;;;;;;4933852;29;20906;-64
2023/01/25 01:49:00;;;;;;;4.30;3.90;;;22.20;51.50;;;;;;4933699;29;20472;-65
2023/01/25 01:51:41;;;;;;;4.10;3.80;;;22.20;51.50;;;;;;4926402;29;20507;-64
2023/01/25 01:54:19;;;;;;;4.03;3.73;;;22.20;51.50;;;;;;4933121;29;20538;-64
2023/01/25 01:56:55;;;;;;;4.70;4.30;;;22.20;51.50;;;;;;4924337;29;20482;-64
2023/01/25 01:59:27;;;;;;;3.60;3.10;;;22.20;51.50;;;;;;4933919;29;20463;-64
2023/01/25 02:01:56;;;;;;;4.00;3.70;;;22.20;51.50;;;;;;4931225;29;20571;-64
2023/01/25 02:04:25;;;;;;;4.30;3.90;;;22.20;51.50;;;;;;4927434;29;20475;-64
2023/01/25 02:07:00;;;;;;;4.47;4.07;;;22.20;51.50;;;;;;4922558;29;20548;-64
2023/01/25 02:09:31;;;;;;;3.60;3.30;;;22.20;51.50;;;;;;4927988;29;20475;-64
2023/01/25 02:12:01;;;;;;;2.83;2.63;;;22.20;51.50;;;;;;4930292;29;20460;-64
2023/01/25 02:14:31;;;;;;;3.43;3.13;;;22.20;51.50;;;;;;4926453;29;20559;-65
2023/01/25 02:17:00;;;;;;;3.67;3.37;;;22.20;51.50;;;;;;4929046;29;20472;-64
2023/01/25 02:19:41;;;;;;;3.70;3.40;;;22.20;51.50;;;;;;4917523;29;20572;-64
2023/01/25 02:22:15;;;;;;;3.90;3.20;;;22.20;51.50;;;;;;4932289;29;20556;-64
2023/01/25 02:24:50;;;;;;;3.27;3.07;;;22.20;51.40;;;;;;4933780;29;20518;-64
2023/01/25 02:27:20;;;;;;;3.20;3.00;;;22.20;51.50;;;;;;4918411;29;20460;-65
2023/01/25 02:29:49;;;;;;;3.20;2.90;;;22.20;51.50;;;;;;4925873;29;20948;-65
2023/01/25 02:32:17;;;;;;;3.80;3.50;;;22.20;51.50;;;;;;4931752;29;20459;-64
2023/01/25 02:34:46;;;;;;;3.77;3.47;;;22.20;51.50;;;;;;4926497;29;20470;-65
2023/01/25 02:37:14;;;;;;;3.47;3.27;;;22.20;51.50;;;;;;4931369;29;21254;-64
2023/01/25 02:39:43;;;;;;;3.53;3.23;;;22.20;51.50;;;;;;4921726;29;20449;-65
2023/01/25 02:42:11;;;;;;;3.90;3.60;;;22.20;51.50;;;;;;4942980;29;20513;-64
2023/01/25 02:44:42;;;;;;;4.10;3.70;;;22.20;51.50;;;;;;4927264;29;20917;-64
2023/01/25 02:47:10;;;;;;;4.10;3.43;;;22.20;51.50;;;;;;4933796;29;20836;-64
2023/01/25 02:49:39;;;;;;;3.50;3.20;;;22.20;51.50;;;;;;4932658;29;20506;-65
2023/01/25 02:52:08;;;;;;;3.90;3.60;;;22.20;51.50;;;;;;4928544;29;20987;-65
2023/01/25 02:54:39;;;;;;;4.20;3.80;;;22.20;51.50;;;;;;4933104;29;20534;-64
2023/01/25 02:57:08;;;;;;;4.00;3.70;;;22.20;51.50;;;;;;4930888;29;20854;-64
2023/01/25 02:59:44;;;;;;;4.23;3.83;;;22.30;51.50;;;;;;4934031;29;20454;-64
2023/01/25 03:02:14;;;;;;;3.63;3.33;;;22.20;51.50;;;;;;4928769;29;20952;-64
2023/01/25 03:04:43;;;;;;;3.40;3.10;;;22.30;51.40;;;;;;4931474;29;20483;-65
2023/01/25 03:07:11;;;;;;;3.27;3.07;;;22.20;51.50;;;;;;4932640;29;20461;-64
2023/01/25 03:09:39;;;;;;;3.53;3.23;;;22.30;51.50;;;;;;4931802;29;20477;-66
2023/01/25 03:12:08;;;;;;;4.10;3.70;;;22.20;51.50;;;;;;4930734;29;20465;-64
2023/01/25 03:14:38;;;;;;;3.37;3.07;;;22.30;51.50;;;;;;4933249;29;21021;-64
2023/01/25 03:17:10;;;;;;;3.50;3.20;;;22.30;51.50;;;;;;4933605;29;20456;-64
2023/01/25 03:19:38;;;;;;;3.47;3.17;;;22.30;51.50;;;;;;4936805;29;20460;-64
2023/01/25 03:22:08;;;;;;;3.57;3.30;;;22.30;51.40;;;;;;4935960;29;20456;-64
2023/01/25 03:24:37;;;;;;;3.30;3.00;;;22.30;51.40;;;;;;4936707;29;20522;-64
2023/01/25 03:27:13;;;;;;;3.37;3.07;;;22.30;51.40;;;;;;4931104;29;20471;-65
2023/01/25 03:29:47;;;;;;;4.17;3.77;;;22.30;51.40;;;;;;4936091;29;20449;-65
2023/01/25 03:32:22;;;;;;;3.47;3.00;;;22.30;51.40;;;;;;4929398;29;20464;-65
2023/01/25 03:34:50;;;;;;;3.60;3.30;;;22.30;51.50;;;;;;4931359;29;20569;-65
2023/01/25 03:37:20;;;;;;;3.50;3.20;;;22.30;51.40;;;;;;4929849;29;20477;-64
2023/01/25 03:39:49;;;;;;;3.23;3.00;;;22.30;51.40;;;;;;4928722;29;20873;-65
2023/01/25 03:42:20;;;;;;;3.47;3.17;;;22.30;51.40;;;;;;4925846;29;20571;-64
2023/01/25 03:44:53;;;;;;;3.80;3.07;;;22.30;51.40;;;;;;4943306;29;20468;-65
2023/01/25 03:47:22;;;;;;;4.27;3.90;;;22.30;51.40;;;;;;4919985;29;20530;-64
2023/01/25 03:49:51;;;;;;;3.63;3.30;;;22.30;51.40;;;;;;4921006;29;20460;-64
2023/01/25 03:52:19;;;;;;;3.63;3.33;;;22.30;51.40;;;;;;4937219;29;20496;-64
2023/01/25 03:54:48;;;;;;;3.37;3.07;;;22.30;51.40;;;;;;4936511;29;20786;-65
2023/01/25 03:57:16;;;;;;;3.10;2.90;;;22.30;51.40;;;;;;4923573;29;20472;-64
2023/01/25 03:59:55;;;;;;;3.00;2.70;;;22.20;51.40;;;;;;4924753;29;20938;-64
2023/01/25 04:02:25;;;;;;;3.53;3.23;;;22.20;51.40;;;;;;4926215;29;20584;-64
2023/01/25 04:04:53;;;;;;;3.50;3.20;;;22.20;51.40;;;;;;4931976;29;20465;-64
2023/01/25 04:07:22;;;;;;;3.43;3.13;;;22.20;51.40;;;;;;4943933;29;20469;-65
2023/01/25 04:09:50;;;;;;;3.70;3.40;;;22.20;51.40;;;;;;4918135;29;20884;-66
2023/01/25 04:12:19;;;;;;;3.83;3.53;;;22.20;51.40;;;;;;4932810;29;20560;-64
2023/01/25 04:14:47;;;;;;;3.80;3.50;;;22.20;51.40;;;;;;4916391;29;20485;-65
2023/01/25 04:17:20;;;;;;;3.27;3.07;;;22.20;51.40;;;;;;4916808;29;20536;-64
2023/01/25 04:19:54;;;;;;;3.70;3.40;;;22.20;51.40;;;;;;4914677;29;20921;-65
2023/01/25 04:22:26;;;;;;;3.67;2.93;;;22.20;51.40;;;;;;4935138;29;20531;-65
2023/01/25 04:24:56;;;;;;;3.30;3.10;;;22.20;51.50;;;;;;4931266;29;20475;-64
2023/01/25 04:27:24;;;;;;;3.70;3.40;;;22.20;51.40;;;;;;4931265;29;20473;-66
2023/01/25 04:30:12;;;;;;;3.20;3.00;;;22.20;51.50;;;;;;4931602;29;20472;-64
2023/01/25 04:32:41;;;;;;;4.07;3.50;;;22.20;51.50;;;;;;4929871;29;20464;-64
2023/01/25 04:35:20;;;;;;;2.67;2.47;;;22.20;51.50;;;;;;4929482;29;20864;-64
2023/01/25 04:37:54;;;;;;;3.33;3.03;;;22.20;51.50;;;;;;4916952;29;20572;-64
2023/01/25 04:40:24;;;;;;;3.63;3.33;;;22.20;51.50;;;;;;4922509;29;20515;-64
2023/01/25 04:42:53;;;;;;;3.17;2.97;;;22.20;51.50;;;;;;4935058;29;20459;-64
2023/01/25 04:45:21;;;;;;;3.07;2.80;;;22.20;51.50;;;;;;4932741;29;20927;-64
2023/01/25 04:47:50;;;;;;;3.70;3.43;;;22.20;51.50;;;;;;4927330;29;20492;-64
2023/01/25 04:50:19;;;;;;;3.00;2.80;;;22.20;51.50;;;;;;4933103;29;20563;-64
2023/01/25 04:52:48;;;;;;;3.93;3.63;;;22.20;51.50;;;;;;4927379;29;20476;-64
2023/01/25 04:55:17;;;;;;;3.17;2.97;;;22.20;51.50;;;;;;4933763;29;21027;-65
2023/01/25 04:57:45;;;;;;;2.73;2.53;;;22.20;51.50;;;;;;4932057;29;20461;-65
2023/01/25 05:00:14;;;;;;;3.20;3.00;;;22.20;51.50;;;;;;4931418;29;20508;-64
2023/01/25 05:02:43;;;;;;;3.20;2.93;;;22.20;51.40;;;;;;4929614;29;20817;-66
2023/01/25 05:05:11;;;;;;;3.10;2.90;;;22.30;51.50;;;;;;4930793;29;20480;-66
2023/01/25 05:07:41;;;;;;;3.00;2.70;;;22.30;51.40;;;;;;4938574;29;20464;-64
2023/01/25 05:10:11;;;;;;;3.30;3.10;;;22.30;51.40;;;;;;4933875;29;20452;-64
2023/01/25 05:12:45;;;;;;;2.93;2.70;;;22.30;51.40;;;;;;4933685;29;20955;-64
2023/01/25 05:15:14;;;;;;;3.40;3.10;;;22.30;51.40;;;;;;4932700;29;20566;-64
2023/01/25 05:17:42;;;;;;;2.90;2.70;;;22.30;51.40;;;;;;4933170;29;20871;-64
2023/01/25 05:20:11;;;;;;;2.93;2.73;;;22.30;51.40;;;;;;4931513;29;20487;-64
2023/01/25 05:22:41;;;;;;;3.40;3.10;;;22.30;51.40;;;;;;4928594;29;20517;-65
2023/01/25 05:26:59;;;;;;;3.37;3.07;;;22.30;51.40;;;;;;4931754;29;20867;-66
2023/01/25 05:27:57;;;;;;;3.57;3.33;;;22.30;51.40;;;;;;4941205;29;20536;-65
2023/01/25 05:30:54;;;;;;;2.83;2.63;;;22.30;51.40;;;;;;4919403;29;20465;-65
2023/01/25 05:33:25;;;;;;;2.83;2.63;;;22.30;51.40;;;;;;4920126;29;20464;-64
2023/01/25 05:35:55;;;;;;;3.50;3.10;;;22.30;51.40;;;;;;4921914;29;20460;-64
2023/01/25 05:38:25;;;;;;;2.83;2.63;;;22.30;51.40;;;;;;4919291;29;20469;-65
2023/01/25 05:40:57;;;;;;;2.70;2.50;;;22.30;51.40;;;;;;4921060;29;20483;-64
2023/01/25 05:43:26;;;;;;;3.00;2.70;;;22.30;51.40;;;;;;4924289;29;20465;-64
2023/01/25 05:45:54;;;;;;;2.90;2.70;;;22.30;51.40;;;;;;4931936;29;20468;-64
2023/01/25 05:48:23;;;;;;;3.13;2.70;;;22.30;51.40;;;;;;4915099;29;20945;-64
2023/01/25 05:50:52;;;;;;;2.60;2.40;;;22.30;51.40;;;;;;4917936;29;20468;-65
2023/01/25 05:53:26;;;;;;;2.90;2.70;;;22.30;51.40;;;;;;4928010;29;20810;-65
2023/01/25 05:55:55;;;;;;;3.07;2.87;;;22.30;51.30;;;;;;4924349;29;20556;-66
2023/01/25 05:58:23;;;;;;;3.20;2.90;;;22.30;51.30;;;;;;4931404;29;20447;-65
2023/01/25 06:00:51;;;;;;;3.13;2.83;;;22.30;51.30;;;;;;4916958;29;20880;-65
2023/01/25 06:03:31;;;;;;;4.43;2.70;;;22.30;51.40;;;;;;4929620;29;20463;-65
2023/01/25 06:06:01;;;;;;;3.33;3.03;;;22.30;51.40;;;;;;4932257;29;20488;-65
2023/01/25 06:08:33;;;;;;;2.80;2.50;;;22.30;51.40;;;;;;4929835;29;20602;-65
2023/01/25 06:11:06;;;;;;;2.80;2.60;;;22.30;51.50;;;;;;4946140;29;20519;-65
2023/01/25 06:13:35;;;;;;;3.40;3.10;;;22.30;51.50;;;;;;4933194;29;20866;-65
2023/01/25 06:16:05;;;;;;;3.03;2.83;;;22.20;51.60;;;;;;4932197;29;20800;-65
2023/01/25 06:18:43;;;;;;;2.13;2.03;;;22.20;51.60;;;;;;4915376;29;20563;-66
2023/01/25 06:21:21;;;;;;;3.43;3.07;;;22.20;51.70;;;;;;4927245;29;20486;-66
2023/01/25 06:23:50;;;;;;;2.40;2.20;;;22.20;51.70;;;;;;4934380;29;20827;-65
2023/01/25 06:26:18;;;;;;;3.80;3.50;;;22.10;51.80;;;;;;4928197;29;20503;-66
2023/01/25 06:28:47;;;;;;;2.60;2.40;;;22.10;51.80;;;;;;4919179;29;20838;-65
2023/01/25 06:31:17;;;;;;;3.93;2.77;;;22.10;51.90;;;;;;4923673;29;20472;-65
2023/01/25 06:33:49;;;;;;;3.40;2.90;;;22.10;51.90;;;;;;4915688;29;20473;-64
2023/01/25 06:36:21;;;;;;;2.90;2.70;;;22.10;52.00;;;;;;4928262;29;20874;-66
2023/01/25 06:38:52;;;;;;;3.57;3.10;;;22.10;52.00;;;;;;4922715;29;20816;-65
2023/01/25 06:41:20;;;;;;;4.57;2.97;;;22.10;52.10;;;;;;4923719;29;20502;-65
2023/01/25 06:43:50;;;;;;;2.90;2.70;;;22.10;52.10;;;;;;4927013;29;20526;-66
2023/01/25 06:46:19;;;;;;;2.77;2.57;;;22.20;52.20;;;;;;4915524;29;20586;-65
2023/01/25 06:48:48;;;;;;;2.30;2.20;;;22.20;52.10;;;;;;4918549;29;20923;-65
2023/01/25 06:51:16;;;;;;;3.37;2.83;;;22.20;52.10;;;;;;4921419;29;20507;-65
2023/01/25 06:53:46;;;;;;;3.73;2.60;;;22.30;52.10;;;;;;4928755;29;20802;-65
2023/01/25 06:56:18;;;;;;;2.73;2.53;;;22.30;52.10;;;;;;4924013;29;20597;-65
2023/01/25 06:58:46;;;;;;;2.60;2.40;;;22.30;52.00;;;;;;4924494;29;20467;-64
2023/01/25 07:01:18;;;;;;;3.10;2.50;;;22.30;52.00;;;;;;4921021;29;20464;-65
2023/01/25 07:03:48;;;;;;;3.43;3.07;;;22.30;52.00;;;;;;4919368;29;20464;-66
2023/01/25 07:06:17;;;;;;;2.93;2.73;;;22.30;51.90;;;;;;4921244;29;20575;-66
2023/01/25 07:08:45;;;;;;;3.77;3.47;;;22.40;51.90;;;;;;4921389;29;20443;-65
2023/01/25 07:11:17;;;;;;;4.97;3.60;;;22.40;51.90;;;;;;4923397;29;20577;-65
2023/01/25 07:13:47;;;;;;;3.40;3.20;;;22.40;51.90;;;;;;4923128;29;20448;-65
2023/01/25 07:16:18;;;;;;;4.40;2.70;;;22.30;51.90;;;;;;4918509;29;20458;-65
2023/01/25 07:18:46;;;;;;;2.90;2.70;;;22.30;51.90;;;;;;4913790;29;20457;-65
2023/01/25 07:21:16;;;;;;;3.20;2.97;;;22.30;51.90;;;;;;4917815;29;20445;-65
2023/01/25 07:23:44;;;;;;;4.00;2.70;;;22.30;51.90;;;;;;4913150;29;20473;-66
2023/01/25 07:26:17;;;;;;;3.10;2.90;;;22.30;52.00;;;;;;4918124;29;20575;-65
2023/01/25 07:28:46;;;;;;;3.30;3.00;;;22.30;52.00;;;;;;4918903;29;20530;-65
2023/01/25 07:31:14;;;;;;;2.30;2.07;;;22.20;52.00;;;;;;4915503;29;20542;-64
2023/01/25 07:33:43;;;;;;;3.03;2.67;;;22.20;52.00;;;;;;4915788;29;20542;-66
2023/01/25 07:36:11;;;;;;;3.07;2.87;;;22.20;52.00;;;;;;4917022;29;20540;-66
2023/01/25 07:38:39;;;;;;;3.30;3.00;;;22.20;52.10;;;;;;4911129;29;20537;-66
2023/01/25 07:41:08;;;;;;;3.23;3.00;;;22.20;52.20;;;;;;4918005;29;20559;-66
2023/01/25 07:43:37;;;;;;;3.87;3.57;;;22.30;52.10;;;;;;4916918;29;20476;-66
2023/01/25 07:46:10;;;;;;;3.27;2.80;;;22.20;52.10;;;;;;4920207;29;20474;-66
2023/01/25 07:48:39;;;;;;;3.00;2.70;;;22.20;52.20;;;;;;4925899;29;20449;-66
2023/01/25 07:51:21;;;;;;;3.50;3.20;;;22.20;52.20;;;;;;4925599;29;20544;-67
2023/01/25 07:53:52;;;;;;;3.30;2.70;;;22.20;52.20;;;;;;4932132;29;20892;-66
2023/01/25 07:56:22;;;;;;;4.93;2.83;;;22.10;52.20;;;;;;4931333;29;20464;-67
2023/01/25 07:58:53;;;;;;;3.80;2.67;;;22.10;52.30;;;;;;4930920;29;20546;-66
2023/01/25 08:01:22;;;;;;;5.10;2.90;;;22.10;52.30;;;;;;4929524;29;20893;-66
2023/01/25 08:03:51;;;;;;;4.20;3.27;;;22.10;52.30;;;;;;4922007;29;20878;-66
2023/01/25 08:06:26;;;;;;;3.20;2.77;;;22.00;52.30;;;;;;4927866;29;20477;-66
2023/01/25 08:08:55;;;;;;;3.93;3.60;;;22.00;52.40;;;;;;4924379;29;21146;-66
2023/01/25 08:11:25;;;;;;;3.43;3.13;;;22.00;52.40;;;;;;4928031;29;20491;-66
2023/01/25 08:13:55;;;;;;;3.30;3.00;;;22.00;52.40;;;;;;4919159;29;20845;-66
2023/01/25 08:16:25;;;;;;;3.03;2.73;;;22.00;52.40;;;;;;4927296;29;20465;-66
2023/01/25 08:18:55;;;;;;;2.93;2.73;;;22.00;52.40;;;;;;4924958;29;20469;-66
2023/01/25 08:21:28;;;;;;;3.23;2.97;;;22.00;52.40;;;;;;4925243;29;20769;-67
2023/01/25 08:23:58;;;;;;;3.40;2.80;;;22.00;52.60;;;;;;4922958;29;20800;-66
2023/01/25 08:26:26;;;;;;;4.40;2.80;;;22.00;53.10;;;;;;4921499;29;20579;-66
2023/01/25 08:28:57;;;;;;;3.03;2.70;;;22.00;53.00;;;;;;4919412;29;20505;-68
2023/01/25 08:31:28;;;;;;;3.17;2.70;;;22.10;52.90;;;;;;4917700;29;20508;-66
2023/01/25 08:33:57;;;;;;;3.47;3.17;;;22.10;52.80;;;;;;4915931;29;20461;-66
2023/01/25 08:36:26;;;;;;;3.60;2.97;;;22.10;52.80;;;;;;4919425;29;20464;-66
2023/01/25 08:38:56;;;;;;;3.53;2.60;;;22.20;52.70;;;;;;4924877;29;20760;-66
2023/01/25 08:41:25;;;;;;;3.27;2.97;;;22.20;52.60;;;;;;4923119;29;20561;-66
2023/01/25 08:43:56;;;;;;;4.20;2.60;;;22.20;52.60;;;;;;4927732;29;20490;-67
2023/01/25 08:46:26;;;;;;;3.00;2.63;;;22.20;52.60;;;;;;4923817;29;20472;-67
2023/01/25 08:48:59;;;;;;;3.43;3.13;;;22.30;52.50;;;;;;4923797;29;20498;-65
2023/01/25 08:51:28;;;;;;;6.40;3.10;;;22.30;52.50;;;;;;4929834;29;20507;-66
2023/01/25 08:53:56;;;;;;;3.03;2.73;;;22.30;52.50;;;;;;4929883;29;20471;-66
2023/01/25 08:56:24;;;;;;;3.20;2.90;;;22.30;52.60;;;;;;4920602;29;20535;-66
2023/01/25 08:58:53;;;;;;;2.80;2.60;;;22.30;52.50;;;;;;4917129;29;20457;-66
2023/01/25 09:01:22;;;;;;;3.10;2.90;;;22.30;52.50;;;;;;4923666;29;20467;-65
2023/01/25 09:03:51;;;;;;;2.90;2.70;;;22.30;52.50;;;;;;4923473;29;20519;-66
2023/01/25 09:06:20;;;;;;;2.57;2.37;;;22.30;52.50;;;;;;4915484;29;20484;-65
2023/01/25 09:08:48;;;;;;;2.93;2.63;;;22.30;52.50;;;;;;4920826;29;20535;-66
2023/01/25 09:11:19;;;;;;;2.87;2.67;;;22.40;52.50;;;;;;4921097;29;20455;-66
2023/01/25 09:13:47;;;;;;;2.90;2.67;;;22.40;52.40;;;;;;4917486;29;20464;-65
2023/01/25 09:16:19;;;;;;;3.13;2.77;;;22.40;52.40;;;;;;4919486;29;20509;-65
2023/01/25 09:18:52;;;;;;;3.70;3.40;;;22.40;52.40;;;;;;4922322;29;20860;-66
2023/01/25 09:21:21;;;;;;;3.00;2.80;;;22.40;52.40;;;;;;4918637;29;20557;-66
2023/01/25 09:23:50;;;;;;;3.27;2.97;;;22.40;52.40;;;;;;4921128;29;20549;-67
2023/01/25 09:26:34;;;;;;;2.87;2.67;;;22.40;52.40;;;;;;4917019;29;20545;-65
2023/01/25 09:29:06;;;;;;;2.85;2.55;;;22.40;52.40;;;;;;4917186;29;20482;-64
2023/01/25 09:31:35;;;;;;;3.13;2.93;;;22.40;52.40;;;;;;4917784;29;20204;-64
2023/01/25 09:34:16;;;;;;;2.97;2.70;;;22.50;52.30;;;;;;4919903;29;20464;-65
2023/01/25 09:36:44;;;;;;;3.40;2.93;;;22.50;52.30;;;;;;4917486;29;21346;-65
2023/01/25 09:39:13;;;;;;;2.67;2.47;;;22.50;52.30;;;;;;4917878;29;20484;-66
2023/01/25 09:42:05;;;;;;;3.53;2.90;;;22.60;52.20;;;;;;4920318;29;20489;-65
2023/01/25 09:44:59;;;;;;;2.57;2.37;;;22.60;52.10;;;;;;4903827;29;20472;-64
2023/01/25 09:47:34;;;;;;;3.13;2.57;;;22.70;52.10;;;;;;4920513;29;20567;-65
2023/01/25 09:50:23;;;;;;;2.73;2.53;;;22.70;52.10;;;;;;4922225;29;20459;-65
2023/01/25 09:53:15;;;;;;;2.40;2.20;;;22.70;52.00;;;;;;4919602;29;20942;-65
2023/01/25 09:55:44;;;;;;;2.80;2.60;;;22.70;52.00;;;;;;4915497;29;20458;-65
2023/01/25 09:58:19;;;;;;;3.70;3.40;;;22.70;52.00;;;;;;4916143;29;20549;-65
2023/01/25 10:00:51;;;;;;;3.10;2.80;;;22.70;52.00;;;;;;4917679;29;20978;-65
2023/01/25 10:03:24;;;;;;;3.10;2.90;;;22.70;52.10;;;;;;4914923;29;20453;-66
2023/01/25 10:05:57;;;;;;;2.67;2.47;;;22.70;52.10;;;;;;4913873;29;20914;-66
2023/01/25 10:08:31;;;;;;;2.67;2.47;;;22.70;52.10;;;;;;4917980;29;20453;-66
2023/01/25 10:11:04;;;;;;;2.70;2.50;;;22.70;52.10;;;;;;4923981;29;20463;-65
2023/01/25 10:13:33;;;;;;;2.80;2.60;;;22.70;52.10;;;;;;4916381;29;21008;-65
2023/01/25 10:16:05;;;;;;;2.73;2.53;;;22.70;52.10;;;;;;4917525;29;20524;-64
2023/01/25 10:18:56;;;;;;;2.80;2.60;;;22.70;52.10;;;;;;4925515;29;20955;-65
2023/01/25 10:21:31;;;;;;;2.73;2.53;;;22.70;52.20;;;;;;4921962;29;20448;-65
2023/01/25 10:24:30;;;;;;;2.47;2.27;;;22.70;52.10;;;;;;4920119;29;20555;-65
2023/01/25 10:27:03;;;;;;;3.30;2.63;;;22.70;52.20;;;;;;4925755;29;20476;-64
2023/01/25 10:29:35;;;;;;;2.87;2.67;;;22.70;52.10;;;;;;4923225;29;20568;-65
2023/01/25 10:32:14;;;;;;;3.63;2.70;;;22.70;52.20;;;;;;4927650;29;20468;-66
2023/01/25 10:34:47;;;;;;;2.43;2.23;;;22.70;52.10;;;;;;4922673;29;20473;-65
2023/01/25 10:37:28;;;;;;;3.63;2.93;;;22.70;52.20;;;;;;4924841;29;20471;-67
2023/01/25 10:40:02;;;;;;;2.20;2.00;;;22.70;52.20;;;;;;4914476;29;20892;-65
2023/01/25 10:42:38;;;;;;;2.77;2.57;;;22.70;52.10;;;;;;4926834;29;20452;-65
2023/01/25 10:45:12;;;;;;;3.00;2.60;;;22.70;52.10;;;;;;4926200;29;21029;-67
2023/01/25 10:47:43;;;;;;;2.30;2.10;;;22.80;52.00;;;;;;4921397;29;20599;-64
2023/01/25 10:50:49;;;;;;;2.83;2.57;;;22.80;52.00;;;;;;4926631;29;20927;-64
2023/01/25 10:53:24;;;;;;;4.60;2.60;;;22.80;51.80;;;;;;4925335;29;20456;-64
2023/01/25 10:56:21;;;;;;;2.67;2.43;;;22.80;51.70;;;;;;4928717;29;20563;-65
2023/01/25 10:58:53;;;;;;;2.93;2.73;;;22.80;51.60;;;;;;4925125;29;20469;-64
2023/01/25 11:01:27;;;;;;;2.97;2.67;;;22.80;51.60;;;;;;4928074;29;20466;-65
2023/01/25 11:03:55;;;;;;;2.73;2.53;;;22.70;51.50;;;;;;4927672;29;20459;-65
2023/01/25 11:06:32;;;;;;;2.70;2.50;;;22.70;51.50;;;;;;4926972;29;20518;-64
2023/01/25 11:09:22;;;;;;;3.10;2.80;;;22.70;51.50;;;;;;4925849;29;20514;-65
2023/01/25 11:11:56;;;;;;;3.07;2.77;;;22.70;51.50;;;;;;4926465;29;20469;-65
2023/01/25 11:14:26;;;;;;;3.50;3.20;;;22.60;51.50;;;;;;4930573;29;20595;-64
2023/01/25 11:16:55;;;;;;;3.10;2.83;;;22.60;51.50;;;;;;4928548;29;20497;-64
2023/01/25 11:19:31;;;;;;;2.67;2.47;;;22.60;51.70;;;;;;4928744;29;20508;-64
2023/01/25 11:22:01;;;;;;;5.43;3.00;;;22.50;51.90;;;;;;4925799;29;20858;-64
2023/01/25 11:24:31;;;;;;;3.17;2.50;;;22.50;52.00;;;;;;4931128;29;20460;-65
2023/01/25 11:27:18;;;;;;;2.77;2.57;;;22.50;52.10;;;;;;4927496;29;20564;-64
2023/01/25 11:29:48;;;;;;;3.23;2.40;;;22.50;52.30;;;;;;4927919;29;20496;-64
2023/01/25 11:32:23;;;;;;;3.57;3.27;;;22.40;52.50;;;;;;4924340;29;20482;-64
2023/01/25 11:34:52;;;;;;;3.37;2.60;;;22.40;52.60;;;;;;4933422;29;20471;-64
2023/01/25 11:37:40;;;;;;;3.90;3.07;;;22.40;52.80;;;;;;4924252;29;20464;-65
2023/01/25 11:40:17;;;;;;;3.87;3.53;;;22.40;52.90;;;;;;4931026;29;20502;-65
2023/01/25 11:42:59;;;;;;;4.00;3.30;;;22.40;52.90;;;;;;4935160;29;20499;-64
2023/01/25 11:45:49;;;;;;;3.23;2.97;;;22.40;52.80;;;;;;4930055;29;20783;-64
2023/01/25 11:48:29;;;;;;;4.13;2.67;;;22.40;52.90;;;;;;4929778;29;20484;-64
2023/01/25 11:51:04;;;;;;;3.00;2.80;;;22.30;52.90;;;;;;4929723;29;20459;-64
2023/01/25 11:54:00;;;;;;;3.17;2.97;;;22.30;52.90;;;;;;4926533;29;20579;-64
2023/01/25 11:56:44;;;;;;;3.93;3.10;;;22.30;52.90;;;;;;4930206;29;20464;-64
2023/01/25 11:59:39;;;;;;;2.87;2.67;;;22.30;53.00;;;;;;4931736;29;20471;-67
2023/01/25 12:02:22;;;;;;;3.77;3.03;;;22.30;53.10;;;;;;4930811;29;20463;-64
2023/01/25 12:05:14;;;;;;;3.87;3.33;;;22.30;53.10;;;;;;4927259;29;20457;-64
2023/01/25 12:07:55;;;;;;;3.30;2.43;;;22.20;53.20;;;;;;4924413;29;20587;-64
2023/01/25 12:10:35;;;;;;;3.10;2.90;;;22.30;53.30;;;;;;4925514;29;20460;-64
2023/01/25 12:13:12;;;;;;;3.17;2.53;;;22.30;53.30;;;;;;4928790;29;20554;-65
2023/01/25 12:16:06;;;;;;;3.90;3.10;;;22.30;53.20;;;;;;4926176;29;21087;-64
2023/01/25 12:18:47;;;;;;;3.53;3.23;;;22.30;53.20;;;;;;4929550;29;20459;-64
2023/01/25 12:21:25;;;;;;;4.03;2.67;;;22.30;53.20;;;;;;4927418;29;20495;-64
2023/01/25 12:24:22;;;;;;;4.00;2.90;;;22.30;53.20;;;;;;4923822;29;20551;-65
2023/01/25 12:27:00;;;;;;;3.60;3.03;;;22.30;53.20;;;;;;4926201;29;20471;-65
2023/01/25 12:29:34;;;;;;;3.73;3.43;;;22.30;53.20;;;;;;4923680;29;20555;-64
2023/01/25 12:32:11;;;;;;;4.33;3.23;;;22.30;53.40;;;;;;4927650;29;20500;-64
2023/01/25 12:34:42;;;;;;;7.07;3.80;;;22.30;53.60;;;;;;4924428;29;20461;-65
2023/01/25 12:37:17;;;;;;;3.07;2.77;;;22.40;53.60;;;;;;4925925;29;20459;-64
2023/01/25 12:39:49;;;;;;;3.30;3.00;;;22.50;53.60;;;;;;4941856;29;20461;-64
2023/01/25 12:42:22;;;;;;;4.07;3.30;;;22.50;53.50;;;;;;4929090;29;21350;-65
2023/01/25 12:44:58;;;;;;;5.03;2.60;;;22.60;53.40;;;;;;4927860;29;20518;-65
2023/01/25 12:47:36;;;;;;;3.00;2.80;;;22.70;53.40;;;;;;4922171;29;20465;-65
2023/01/25 12:50:15;;;;;;;3.10;2.80;;;22.80;53.30;;;;;;4923058;29;20441;-65
2023/01/25 12:52:51;;;;;;;3.97;3.10;;;22.80;53.30;;;;;;4920951;29;20488;-66
2023/01/25 12:55:20;;;;;;;4.70;3.10;;;22.90;53.30;;;;;;4931969;29;20554;-64
2023/01/25 12:57:57;;;;;;;3.10;2.90;;;22.90;53.30;;;;;;4929889;29;20516;-65
2023/01/25 13:00:34;;;;;;;5.33;3.50;;;22.90;53.40;;;;;;4929848;29;20452;-66
2023/01/25 13:03:25;;;;;;;2.73;2.53;;;22.90;53.40;;;;;;4921233;29;20524;-64
2023/01/25 13:05:58;;;;;;;2.60;2.40;;;22.90;53.40;;;;;;4926704;29;20467;-65
2023/01/25 13:08:37;;;;;;;3.00;2.80;;;22.90;53.40;;;;;;4933877;29;20508;-65
2023/01/25 13:11:14;;;;;;;2.90;2.60;;;22.90;53.40;;;;;;4927017;29;20468;-65
2023/01/25 13:13:43;;;;;;;3.47;3.10;;;22.90;53.50;;;;;;4923365;29;20513;-65
2023/01/25 13:16:34;;;;;;;3.07;2.80;;;22.90;53.50;;;;;;4928394;29;20569;-65